Date,TemperatureHighF,TemperatureAvgF,TemperatureLowF,DewpointHighF,DewpointAvgF,DewpointLowF,HumidityHigh,HumidityAvg,HumidityLow,PressureMaxIn,PressureMinIn,WindSpeedMaxMPH,WindSpeedAvgMPH,GustSpeedMaxMPH,PrecipitationSumIn
2013-9-1,82.4,75.3,72.0,73.6,70.7,68.8,91,86,74,29.77,29.71,5,1,0,0.00
2013-9-2,76.8,73.6,71.6,72.4,70.4,68.8,92,90,84,29.75,29.59,4,1,0,0.60
2013-9-3,76.8,70.6,61.5,71.9,67.7,59.2,92,91,84,29.73,29.59,3,0,0,0.66
2013-9-4,78.4,67.3,56.5,63.9,59.4,54.5,93,77,54,29.86,29.73,9,1,0,0.01
2013-9-5,77.5,65.2,52.5,62.7,56.6,48.4,92,76,52,30.04,29.80,6,1,0,0.00
2013-9-6,71.1,59.2,48.7,51.0,47.4,42.5,89,67,43,30.18,30.04,6,1,0,0.00
2013-9-7,75.9,63.2,45.9,59.6,52.2,43.4,93,70,41,30.05,29.81,5,1,0,0.00
2013-9-8,79.3,68.8,54.7,65.5,57.9,44.5,88,69,45,29.98,29.68,6,1,0,0.00
2013-9-9,70.2,59.2,46.2,54.2,47.5,41.9,85,67,41,30.18,29.99,4,1,0,0.00
2013-9-10,76.5,69.5,58.3,69.1,63.8,53.6,91,82,74,30.09,29.94,6,2,0,0.00
2013-9-11,90.5,77.8,68.5,77.2,71.0,66.1,93,80,65,30.01,29.88,7,2,0,0.00
2013-9-12,81.9,74.0,67.8,72.6,69.0,65.1,92,85,73,29.90,29.60,7,1,0,0.49
2013-9-13,79.7,70.5,60.6,69.3,64.3,54.4,93,81,66,29.66,29.48,9,1,0,0.05
2013-9-14,73.2,60.2,50.5,57.5,52.6,47.4,92,77,56,29.99,29.66,7,2,0,0.00
2013-9-15,70.2,57.7,46.4,54.6,49.8,44.2,93,77,52,30.12,29.99,5,1,0,0.00
2013-9-16,71.6,60.0,52.7,58.2,54.3,42.8,93,82,61,30.14,29.95,10,1,0,0.00
2013-9-17,65.7,52.5,41.9,46.8,40.7,36.2,91,66,43,30.36,30.15,8,2,0,0.00
2013-9-18,70.9,54.8,40.3,52.0,45.4,38.4,93,74,44,30.28,30.10,6,1,0,0.00
2013-9-19,76.8,60.3,48.0,58.5,51.7,45.9,94,76,43,30.10,29.98,5,1,0,0.00
2013-9-20,75.7,61.4,47.3,63.6,55.0,45.4,94,81,54,30.03,29.92,4,1,0,0.00
2013-9-21,76.1,64.2,50.9,66.6,59.7,48.9,93,86,71,29.94,29.62,8,2,0,0.00
2013-9-22,72.9,65.1,51.3,66.5,57.5,44.0,92,77,57,29.77,29.53,11,2,0,0.30
2013-9-23,64.9,53.9,44.2,49.1,45.1,40.9,90,73,53,29.93,29.76,9,2,0,0.00
2013-9-24,71.1,53.6,39.9,51.5,44.8,37.8,93,75,44,29.95,29.76,7,1,0,0.00
2013-9-25,72.9,58.5,44.2,56.2,49.7,42.0,93,75,47,29.87,29.78,8,1,0,0.00
2013-9-26,67.6,58.8,49.3,54.2,51.0,46.8,92,76,57,30.03,29.87,4,1,0,0.01
2013-9-27,67.6,58.3,48.7,56.6,52.3,46.5,92,81,65,30.19,30.02,4,0,0,0.00
2013-9-28,73.4,59.5,47.7,58.3,52.3,45.8,94,79,55,30.25,30.16,5,1,0,0.00
2013-9-29,68.0,56.4,47.5,56.4,51.1,45.6,94,83,62,30.17,30.01,6,1,0,0.00
2013-9-30,72.7,59.2,51.3,56.4,51.8,48.8,92,78,48,30.02,29.88,4,1,0,0.00